createdAt,value
2024-03-16T00:00:09.348Z,10.99
2024-03-16T00:02:37.700Z,11.01
2024-03-16T00:05:06.491Z,11.04
2024-03-16T00:07:34.831Z,11.03
2024-03-16T00:10:03.612Z,11.02
2024-03-16T00:12:32.302Z,10.98
2024-03-16T00:15:00.659Z,10.98
2024-03-16T00:17:29.026Z,10.93
2024-03-16T00:19:57.616Z,11.00
2024-03-16T00:22:26.001Z,11.03
2024-03-16T00:24:54.531Z,11.04
2024-03-16T00:27:23.092Z,10.98
2024-03-16T00:29:51.557Z,10.96
2024-03-16T00:32:19.923Z,10.91
2024-03-16T00:34:51.212Z,10.92
2024-03-16T00:37:19.627Z,10.90
2024-03-16T00:39:48.012Z,10.95
2024-03-16T00:42:16.618Z,11.02
2024-03-16T00:44:44.926Z,11.03
2024-03-16T00:47:13.374Z,11.06
2024-03-16T00:49:41.897Z,11.08
2024-03-16T00:52:10.516Z,11.01
2024-03-16T00:54:39.733Z,11.02
2024-03-16T00:57:08.301Z,10.94
2024-03-16T00:59:36.699Z,11.01
2024-03-16T01:02:06.244Z,10.99
2024-03-16T01:04:34.891Z,11.04
2024-03-16T01:07:04.035Z,11.07
2024-03-16T01:09:32.474Z,11.05
2024-03-16T01:12:00.865Z,11.05
2024-03-16T01:14:29.241Z,11.00
2024-03-16T01:16:57.822Z,10.99
2024-03-16T01:19:26.466Z,10.91
2024-03-16T01:21:54.919Z,10.87
2024-03-16T01:24:23.386Z,10.82
2024-03-16T01:26:51.680Z,10.82
2024-03-16T01:29:20.110Z,10.81
2024-03-16T01:31:48.505Z,10.72
2024-03-16T01:34:17.613Z,10.65
2024-03-16T01:36:46.049Z,10.73
2024-03-16T01:39:16.745Z,10.78
2024-03-16T01:41:45.077Z,10.79
2024-03-16T01:44:13.400Z,10.73
2024-03-16T01:46:42.977Z,10.70
2024-03-16T01:49:11.590Z,10.75
2024-03-16T01:51:40.183Z,10.79
2024-03-16T01:54:08.627Z,10.80
2024-03-16T01:56:37.001Z,10.86
2024-03-16T01:59:05.331Z,10.83
2024-03-16T02:01:33.824Z,10.83
2024-03-16T02:04:04.809Z,10.87
2024-03-16T02:06:36.131Z,10.89
2024-03-16T02:09:04.929Z,10.91
2024-03-16T02:11:33.388Z,10.83
2024-03-16T02:14:01.902Z,10.86
2024-03-16T02:16:30.336Z,10.87
2024-03-16T02:18:59.164Z,10.80
2024-03-16T02:21:27.743Z,10.80
2024-03-16T02:23:56.135Z,10.83
2024-03-16T02:26:24.588Z,10.88
2024-03-16T02:28:53.038Z,10.85
2024-03-16T02:31:21.335Z,10.80
2024-03-16T02:33:49.791Z,10.78
2024-03-16T02:36:19.228Z,10.79
2024-03-16T02:38:47.908Z,10.80
2024-03-16T02:41:16.385Z,10.71
2024-03-16T02:43:46.293Z,10.75
2024-03-16T02:46:14.951Z,10.76
2024-03-16T02:48:46.749Z,10.71
2024-03-16T02:51:15.262Z,10.79
2024-03-16T02:53:43.714Z,10.79
2024-03-16T02:56:14.049Z,10.73
2024-03-16T02:58:42.403Z,10.68
2024-03-16T03:01:12.812Z,10.70
2024-03-16T03:03:41.145Z,10.69
2024-03-16T03:06:09.710Z,10.68
2024-03-16T03:08:38.539Z,10.76
2024-03-16T03:11:06.995Z,10.72
2024-03-16T03:13:35.930Z,10.75
2024-03-16T03:16:04.897Z,10.67
2024-03-16T03:18:33.376Z,10.62
2024-03-16T03:21:01.752Z,10.58
2024-03-16T03:23:30.759Z,10.56
2024-03-16T03:25:59.595Z,10.62
2024-03-16T03:28:27.944Z,10.55
2024-03-16T03:30:56.569Z,10.53
2024-03-16T03:33:25.051Z,10.48
2024-03-16T03:35:53.481Z,10.56
2024-03-16T03:38:21.899Z,10.56
2024-03-16T03:40:50.457Z,10.52
2024-03-16T03:43:22.047Z,10.39
2024-03-16T03:45:54.097Z,10.43
2024-03-16T03:48:42.422Z,10.44
2024-03-16T03:51:11.299Z,10.36
2024-03-16T03:53:38.601Z,10.38
2024-03-16T03:56:07.257Z,10.36
2024-03-16T03:58:35.557Z,10.34
2024-03-16T04:01:04.002Z,10.35
2024-03-16T04:03:32.552Z,10.36
2024-03-16T04:06:00.865Z,10.36
2024-03-16T04:08:29.301Z,10.43
2024-03-16T04:10:57.555Z,10.40
2024-03-16T04:13:26.156Z,10.30
2024-03-16T04:15:54.519Z,10.39
2024-03-16T04:18:22.910Z,10.36
2024-03-16T04:20:51.293Z,10.37
2024-03-16T04:23:19.591Z,10.28
2024-03-16T04:25:47.897Z,10.23
2024-03-16T04:28:16.269Z,10.20
2024-03-16T04:30:44.722Z,10.28
2024-03-16T04:33:13.908Z,10.22
2024-03-16T04:35:42.299Z,10.17
2024-03-16T04:38:10.808Z,10.08
2024-03-16T04:40:39.584Z,10.11
2024-03-16T04:43:08.020Z,10.12
2024-03-16T04:45:36.323Z,10.06
2024-03-16T04:48:06.028Z,10.02
2024-03-16T04:50:34.947Z,9.99
2024-03-16T04:53:03.245Z,10.05
2024-03-16T04:55:31.769Z,9.96
2024-03-16T04:58:05.464Z,9.94
2024-03-16T05:00:34.034Z,9.98
2024-03-16T05:03:02.521Z,9.97
2024-03-16T05:05:30.991Z,9.89
2024-03-16T05:07:59.417Z,9.91
2024-03-16T05:10:27.873Z,9.92
2024-03-16T05:12:56.434Z,9.96
2024-03-16T05:15:24.840Z,9.96
2024-03-16T05:17:53.157Z,9.94
2024-03-16T05:20:22.933Z,9.93
2024-03-16T05:22:51.419Z,9.90
2024-03-16T05:25:20.156Z,9.98
2024-03-16T05:27:48.753Z,9.91
2024-03-16T05:30:22.107Z,9.86
2024-03-16T05:32:52.545Z,9.90
2024-03-16T05:35:21.165Z,9.95
2024-03-16T05:37:51.405Z,10.01
2024-03-16T05:40:19.858Z,9.99
2024-03-16T05:42:48.183Z,9.98
2024-03-16T05:45:16.664Z,9.93
2024-03-16T05:47:49.476Z,10.01
2024-03-16T05:50:17.998Z,10.09
2024-03-16T05:52:46.437Z,10.11
2024-03-16T05:55:16.900Z,10.23
2024-03-16T05:57:45.470Z,10.14
2024-03-16T06:00:16.169Z,10.15
2024-03-16T06:02:44.542Z,10.22
2024-03-16T06:05:14.767Z,10.27
2024-03-16T06:07:44.955Z,10.32
2024-03-16T06:10:13.623Z,10.35
2024-03-16T06:12:42.086Z,10.42
2024-03-16T06:15:10.525Z,10.46
2024-03-16T06:17:38.956Z,10.54
2024-03-16T06:20:08.375Z,10.60
2024-03-16T06:22:36.705Z,10.71
2024-03-16T06:25:05.820Z,10.77
2024-03-16T06:27:35.564Z,10.92
2024-03-16T06:30:04.659Z,10.89
2024-03-16T06:32:35.762Z,10.99
2024-03-16T06:35:05.658Z,10.98
2024-03-16T06:37:34.055Z,10.97
2024-03-16T06:40:02.530Z,10.96
2024-03-16T06:42:31.030Z,11.07
2024-03-16T06:44:59.474Z,11.16
2024-03-16T06:47:28.808Z,11.17
2024-03-16T06:49:57.265Z,11.23
2024-03-16T06:52:26.769Z,11.31
2024-03-16T06:54:55.317Z,11.28
2024-03-16T06:57:23.911Z,11.42
2024-03-16T06:59:53.857Z,11.45
2024-03-16T07:02:23.055Z,11.42
2024-03-16T07:04:51.736Z,11.49
2024-03-16T07:07:20.208Z,11.48
2024-03-16T07:09:48.806Z,11.43
2024-03-16T07:12:17.386Z,11.51
2024-03-16T07:14:45.884Z,11.57
2024-03-16T07:17:14.248Z,11.70
2024-03-16T07:19:42.831Z,11.80
2024-03-16T07:22:11.333Z,11.93
2024-03-16T07:24:40.030Z,12.09
2024-03-16T07:27:08.695Z,12.21
2024-03-16T07:29:36.994Z,12.37
2024-03-16T07:32:05.572Z,12.37
2024-03-16T07:34:34.919Z,12.67
2024-03-16T07:37:03.413Z,12.53
2024-03-16T07:39:31.953Z,12.65
2024-03-16T07:42:00.816Z,12.61
2024-03-16T07:44:30.546Z,12.84
2024-03-16T07:46:58.932Z,13.36
2024-03-16T07:49:27.387Z,13.75
2024-03-16T07:51:55.975Z,14.13
2024-03-16T07:54:24.811Z,14.13
2024-03-16T07:56:53.689Z,14.57
2024-03-16T07:59:22.233Z,15.13
2024-03-16T08:01:50.577Z,15.61
2024-03-16T08:04:19.042Z,16.26
2024-03-16T08:06:47.651Z,16.73
2024-03-16T08:09:16.145Z,16.46
2024-03-16T08:11:44.612Z,17.13
2024-03-16T08:14:13.013Z,17.60
2024-03-16T08:16:41.445Z,17.54
2024-03-16T08:19:10.396Z,16.95
2024-03-16T08:21:39.792Z,16.54
2024-03-16T08:24:09.705Z,16.25
2024-03-16T08:26:38.499Z,16.07
2024-03-16T08:29:10.103Z,16.01
2024-03-16T08:31:39.000Z,16.14
2024-03-16T08:34:07.641Z,15.81
2024-03-16T08:36:36.192Z,15.49
2024-03-16T08:39:04.911Z,15.53
2024-03-16T08:41:40.037Z,15.52
2024-03-16T08:53:05.531Z,25.23
2024-03-16T08:55:34.182Z,23.19
2024-03-16T08:58:02.511Z,22.63
2024-03-16T09:00:31.163Z,22.36
2024-03-16T09:03:00.990Z,22.16
2024-03-16T09:05:29.314Z,22.06
2024-03-16T09:10:21.748Z,22.04
2024-03-16T09:12:50.123Z,22.01
2024-03-16T09:15:18.372Z,21.97
2024-03-16T09:17:47.179Z,21.97
2024-03-16T09:20:15.465Z,21.97
2024-03-16T09:22:44.819Z,22.00
2024-03-16T09:25:13.140Z,22.02
2024-03-16T09:27:41.388Z,22.10
2024-03-16T09:30:10.021Z,22.06
2024-03-16T09:32:38.598Z,21.97
2024-03-16T09:35:07.462Z,21.92
2024-03-16T09:37:35.638Z,21.83
2024-03-16T09:40:08.171Z,22.38
